Max, North Dakota
Current Conditions -  °F | °C
As of 3:47 AM on Saturday 29 Nov 2014 (Local Time) from KMOT Reporting Station
Overcast Overcast  
Wind Chill: -3°   Ceiling: 2400
Heat Index: 12°   Visibility: 10mi
Dew Point:   Wind: 13mph
Humidity: 84%   Direction: 290°WNW
Pressure: 29.46"   Gusts: NA
Location:  47.82°N, 101.3°W
Report Text: KMOT 290947Z AUTO 29011KT 10SM BKN024 BKN065 OVC085 M11/M13 A2946 RMK AO2 T11111133
Loading
Personal Weather Stations






























Interactive Weather Map New forecast layout! Learn more

10-Day Weather Forecast

Advertisements
Track Severe Weather on mobile